createdAt,value
2022-09-21T00:02:10.158Z,102211.69
2022-09-21T00:04:55.506Z,102207.38
2022-09-21T00:07:40.719Z,102213.53
2022-09-21T00:10:26.838Z,102208.25
2022-09-21T00:13:12.385Z,102206.44
2022-09-21T00:15:57.620Z,102209.97
2022-09-21T00:18:43.629Z,102214.38
2022-09-21T00:21:28.700Z,102214.41
2022-09-21T00:24:14.360Z,102214.50
2022-09-21T00:26:59.497Z,102212.84
2022-09-21T00:29:44.795Z,102218.06
2022-09-21T00:32:31.321Z,102221.47
2022-09-21T00:35:16.533Z,102217.09
2022-09-21T00:38:02.553Z,102217.09
2022-09-21T00:40:47.695Z,102222.44
2022-09-21T00:43:34.157Z,102211.22
2022-09-21T00:46:28.327Z,102211.19
2022-09-21T00:49:14.506Z,102217.25
2022-09-21T00:52:01.978Z,102218.13
2022-09-21T00:54:55.716Z,102222.47
2022-09-21T00:57:41.285Z,102221.59
2022-09-21T01:00:26.445Z,102213.84
2022-09-21T01:03:12.574Z,102216.47
2022-09-21T01:05:57.598Z,102218.19
2022-09-21T01:08:43.890Z,102224.31
2022-09-21T01:11:58.255Z,102223.47
2022-09-21T01:14:55.750Z,102218.25
2022-09-21T01:17:58.733Z,102226.91
2022-09-21T01:20:59.613Z,102221.72
2022-09-21T01:24:03.604Z,102220.84
2022-09-21T01:26:57.956Z,102218.28
2022-09-21T01:29:55.272Z,102220.88
2022-09-21T01:32:40.306Z,102221.78
2022-09-21T01:35:31.292Z,102215.72
2022-09-21T01:38:26.258Z,102223.50
2022-09-21T01:41:13.977Z,102216.53
2022-09-21T01:44:17.990Z,102204.47
2022-09-21T01:47:03.912Z,102182.81
2022-09-21T01:49:54.945Z,102223.53
2022-09-21T01:52:45.171Z,102225.28
2022-09-21T01:55:42.504Z,102225.28
2022-09-21T01:58:33.383Z,102223.53
2022-09-21T02:01:21.365Z,102222.69
2022-09-21T02:04:10.025Z,102221.84
2022-09-21T02:06:55.289Z,102225.31
2022-09-21T02:09:40.573Z,102208.91
2022-09-21T02:12:26.015Z,102227.94
2022-09-21T02:15:11.532Z,102232.31
2022-09-21T02:18:05.772Z,102235.75
2022-09-21T02:20:57.049Z,102234.84
2022-09-21T02:23:59.174Z,102233.13
2022-09-21T02:26:49.287Z,102232.19
2022-09-21T02:29:47.666Z,102233.09
2022-09-21T02:32:59.019Z,102238.28
2022-09-21T02:35:58.579Z,102236.59
2022-09-21T02:38:46.244Z,102240.97
2022-09-21T02:41:38.122Z,102244.44
2022-09-21T02:44:37.082Z,102248.81
2022-09-21T02:47:31.367Z,102247.91
2022-09-21T02:50:21.095Z,102247.91
2022-09-21T02:53:08.323Z,102248.75
2022-09-21T02:55:56.552Z,102250.53
2022-09-21T02:58:45.320Z,102254.03
2022-09-21T03:01:30.854Z,102255.78
2022-09-21T03:04:16.847Z,102260.97
2022-09-21T03:07:02.180Z,102260.97
2022-09-21T03:09:48.982Z,102262.72
2022-09-21T03:12:34.364Z,102267.91
2022-09-21T03:15:20.075Z,102266.16
2022-09-21T03:18:05.910Z,102264.47
2022-09-21T03:20:51.108Z,102265.31
2022-09-21T03:23:36.357Z,102264.44
2022-09-21T03:26:22.262Z,102261.84
2022-09-21T03:29:08.467Z,102262.72
2022-09-21T03:31:54.628Z,102260.16
2022-09-21T03:34:40.094Z,102259.28
2022-09-21T03:37:25.071Z,102274.00
2022-09-21T03:40:12.481Z,102267.97
2022-09-21T03:42:57.884Z,102277.47
2022-09-21T03:45:42.948Z,102274.03
2022-09-21T03:48:28.320Z,102274.00
2022-09-21T03:51:14.368Z,102278.34
2022-09-21T03:53:59.419Z,102280.94
2022-09-21T03:56:44.852Z,102274.00
2022-09-21T03:59:29.928Z,102289.59
2022-09-21T04:02:15.867Z,102280.94
2022-09-21T04:05:02.011Z,102282.66
2022-09-21T04:07:47.217Z,102275.75
2022-09-21T04:10:35.473Z,102282.69
2022-09-21T04:13:20.591Z,102288.75
2022-09-21T04:16:06.153Z,102289.59
2022-09-21T04:18:51.659Z,102285.28
2022-09-21T04:21:36.778Z,102287.00
2022-09-21T04:24:22.544Z,102287.84
2022-09-21T04:27:08.183Z,102289.59
2022-09-21T04:29:53.550Z,102274.00
2022-09-21T04:32:38.736Z,102290.47
2022-09-21T04:35:23.866Z,102293.06
2022-09-21T04:38:09.259Z,102287.84
2022-09-21T04:40:58.087Z,102286.97
2022-09-21T04:43:46.801Z,102286.09
2022-09-21T04:46:32.284Z,102294.75
2022-09-21T04:49:17.590Z,102287.88
2022-09-21T04:52:03.143Z,102300.00
2022-09-21T04:54:48.734Z,102295.66
2022-09-21T04:57:33.861Z,102300.84
2022-09-21T05:00:19.605Z,102309.50
2022-09-21T05:03:04.566Z,102306.91
2022-09-21T05:05:51.009Z,102312.06
2022-09-21T05:08:54.729Z,102313.78
2022-09-21T05:11:40.089Z,102314.66
2022-09-21T05:14:25.536Z,102323.34
2022-09-21T05:17:11.798Z,102322.50
2022-09-21T05:19:57.035Z,102322.50
2022-09-21T05:22:42.162Z,102330.31
2022-09-21T05:25:27.540Z,102333.75
2022-09-21T05:28:13.155Z,102330.31
2022-09-21T05:31:17.172Z,102337.22
2022-09-21T05:34:19.635Z,102335.50
2022-09-21T05:37:09.196Z,102332.03
2022-09-21T05:39:54.695Z,102337.25
2022-09-21T05:42:39.942Z,102338.13
2022-09-21T05:45:25.976Z,102341.59
2022-09-21T05:48:15.712Z,102333.78
2022-09-21T05:51:13.821Z,102333.81
2022-09-21T05:54:09.000Z,102330.31
2022-09-21T05:57:13.048Z,102333.78
2022-09-21T06:00:13.339Z,102327.66
2022-09-21T06:03:17.912Z,102337.16
2022-09-21T06:06:02.952Z,102336.25
2022-09-21T06:08:48.164Z,102339.66
2022-09-21T06:11:33.426Z,102337.81
2022-09-21T06:14:24.526Z,102342.84
2022-09-21T06:17:09.934Z,102339.09
2022-09-21T06:19:55.308Z,102340.72
2022-09-21T06:22:40.496Z,102338.81
2022-09-21T06:25:25.819Z,102340.41
2022-09-21T06:28:12.455Z,102345.44
2022-09-21T06:30:58.209Z,102339.13
2022-09-21T06:33:47.910Z,102339.78
2022-09-21T06:36:33.178Z,102337.69
2022-09-21T06:39:18.399Z,102343.44
2022-09-21T06:42:03.657Z,102345.72
2022-09-21T06:44:49.044Z,102339.09
2022-09-21T06:47:34.135Z,102336.03
2022-09-21T06:50:19.771Z,102344.38
2022-09-21T06:53:05.098Z,102334.13
2022-09-21T06:55:50.295Z,102342.19
2022-09-21T06:58:37.452Z,102338.63
2022-09-21T07:01:23.345Z,102347.09
2022-09-21T07:04:09.375Z,102348.75
2022-09-21T07:06:54.728Z,102341.47
2022-09-21T07:12:44.851Z,102344.44
2022-09-21T07:15:31.123Z,102339.97
2022-09-21T07:18:16.257Z,102337.53
2022-09-21T07:21:05.747Z,102339.34
2022-09-21T07:23:50.858Z,102345.44
2022-09-21T07:26:37.188Z,102340.34
2022-09-21T07:29:22.466Z,102343.53
2022-09-21T07:32:07.988Z,102335.00
2022-09-21T07:34:57.115Z,102346.84
2022-09-21T07:37:42.315Z,102349.94
2022-09-21T07:40:27.704Z,102342.91
2022-09-21T07:43:12.770Z,102351.31
2022-09-21T07:45:58.482Z,102350.09
2022-09-21T07:48:43.686Z,102344.19
2022-09-21T07:51:29.107Z,102345.72
2022-09-21T07:54:15.764Z,102345.22
2022-09-21T07:57:19.909Z,102350.19
2022-09-21T08:00:05.645Z,102350.88
2022-09-21T08:02:51.293Z,102352.69
2022-09-21T08:05:36.694Z,102355.84
2022-09-21T08:08:22.096Z,102349.13
2022-09-21T08:11:07.556Z,102343.44
2022-09-21T08:13:53.446Z,102349.63
2022-09-21T08:16:38.886Z,102341.94
2022-09-21T08:19:26.013Z,102345.28
2022-09-21T08:22:14.047Z,102351.72
2022-09-21T08:24:59.520Z,102340.09
2022-09-21T08:27:44.660Z,102345.00
2022-09-21T08:30:31.970Z,102348.31
2022-09-21T08:33:17.066Z,102338.59
2022-09-21T08:36:03.227Z,102337.38
2022-09-21T08:38:48.816Z,102337.22
2022-09-21T08:41:40.538Z,102337.63
2022-09-21T08:44:29.641Z,102333.44
2022-09-21T08:47:23.937Z,102327.19
2022-09-21T08:50:20.981Z,102328.31
2022-09-21T08:53:14.426Z,102323.44
2022-09-21T08:56:00.344Z,102329.06
2022-09-21T08:58:45.527Z,102326.47
2022-09-21T09:01:30.986Z,102326.00
2022-09-21T09:04:23.501Z,102317.00
2022-09-21T09:07:27.086Z,102319.69
2022-09-21T09:10:32.372Z,102339.19
2022-09-21T09:13:26.363Z,102332.63
2022-09-21T09:16:18.586Z,102325.00
2022-09-21T09:19:18.473Z,102326.38
2022-09-21T09:22:06.813Z,102326.31
2022-09-21T09:24:55.106Z,102333.53
2022-09-21T09:27:42.783Z,102330.53
2022-09-21T09:30:30.783Z,102326.25
2022-09-21T09:33:25.858Z,102316.69
2022-09-21T09:36:12.025Z,102328.56
2022-09-21T09:38:58.570Z,102315.31
2022-09-21T09:41:52.254Z,102328.03
2022-09-21T09:44:54.427Z,102330.72
2022-09-21T09:48:04.307Z,102325.19
2022-09-21T09:50:49.686Z,102320.44
2022-09-21T09:53:36.000Z,102313.69
2022-09-21T09:56:21.117Z,102324.22
2022-09-21T09:59:10.617Z,102325.03
2022-09-21T10:02:00.994Z,102334.22
2022-09-21T10:05:15.624Z,102333.47
2022-09-21T10:08:01.522Z,102308.97
2022-09-21T10:10:47.796Z,102313.84
2022-09-21T10:13:34.171Z,102305.63
2022-09-21T10:16:21.413Z,102303.31
2022-09-21T10:19:14.463Z,102290.59
2022-09-21T10:22:04.655Z,102306.13
2022-09-21T10:24:51.764Z,102299.53
2022-09-21T10:27:37.635Z,102299.38
2022-09-21T10:30:36.296Z,102293.59
2022-09-21T10:33:22.289Z,102293.09
2022-09-21T10:36:21.594Z,102300.72
2022-09-21T10:39:29.812Z,102295.13
2022-09-21T10:42:17.786Z,102303.16
2022-09-21T10:45:17.296Z,102301.97
2022-09-21T10:48:05.338Z,102314.38
2022-09-21T10:50:51.162Z,102294.69
2022-09-21T10:53:36.698Z,102298.00
2022-09-21T10:56:21.994Z,102291.41
2022-09-21T10:59:14.782Z,102285.63
2022-09-21T11:02:01.062Z,102278.97
2022-09-21T11:04:48.743Z,102281.41
2022-09-21T11:07:41.513Z,102280.22
2022-09-21T11:10:45.837Z,102276.72
2022-09-21T11:13:49.799Z,102257.53
2022-09-21T11:16:39.565Z,102280.00
2022-09-21T11:19:24.566Z,102286.94
2022-09-21T11:22:09.900Z,102287.31
2022-09-21T11:25:04.910Z,102301.00
2022-09-21T11:27:54.358Z,102291.91
2022-09-21T11:30:48.859Z,102286.06
2022-09-21T11:33:43.066Z,102275.22
2022-09-21T11:36:29.447Z,102274.06
2022-09-21T11:39:23.529Z,102280.41
2022-09-21T11:42:25.887Z,102279.13
2022-09-21T11:45:26.559Z,102269.38
2022-09-21T11:48:20.113Z,102274.84
2022-09-21T11:51:37.498Z,102274.84
2022-09-21T11:54:41.943Z,102278.66
2022-09-21T11:57:35.345Z,102271.84
2022-09-21T12:00:21.845Z,102266.81
2022-09-21T12:03:13.003Z,102257.34
2022-09-21T12:06:06.051Z,102255.03
2022-09-21T12:08:58.399Z,102255.41
2022-09-21T12:11:48.973Z,102248.75
2022-09-21T12:14:42.954Z,102252.50
2022-09-21T12:17:28.454Z,102248.94
2022-09-21T12:20:20.373Z,102248.59
2022-09-21T12:23:11.346Z,102243.16
2022-09-21T12:25:58.523Z,102241.56
2022-09-21T12:28:50.601Z,102225.50
2022-09-21T12:31:43.973Z,102241.19
2022-09-21T12:34:34.264Z,102225.94
2022-09-21T12:37:31.623Z,102229.44
2022-09-21T12:40:25.103Z,102220.59
2022-09-21T12:43:22.110Z,102223.31
2022-09-21T12:46:12.822Z,102218.78
2022-09-21T12:49:00.309Z,102227.19
2022-09-21T12:51:49.529Z,102227.44
2022-09-21T12:54:45.461Z,102220.13
2022-09-21T12:58:14.455Z,102223.69
2022-09-21T13:01:16.351Z,102234.47
2022-09-21T13:04:20.666Z,102223.66
2022-09-21T13:07:21.434Z,102235.97
2022-09-21T13:10:12.582Z,102231.53
2022-09-21T13:13:02.111Z,102230.06
2022-09-21T13:15:48.326Z,102228.50
2022-09-21T13:18:36.331Z,102229.84
2022-09-21T13:21:32.385Z,102231.19
2022-09-21T13:24:29.468Z,102213.56
2022-09-21T13:27:15.902Z,102217.00
2022-09-21T13:30:33.696Z,102219.88
2022-09-21T13:33:19.068Z,102217.72
2022-09-21T13:36:07.869Z,102215.53
2022-09-21T13:38:57.041Z,102208.78
2022-09-21T13:44:47.512Z,102210.91
2022-09-21T13:47:34.331Z,102217.31
2022-09-21T13:50:23.888Z,102212.25
2022-09-21T13:53:19.077Z,102210.47
2022-09-21T13:56:18.073Z,102216.59
2022-09-21T13:59:03.392Z,102214.59
2022-09-21T14:01:49.304Z,102213.78
2022-09-21T14:04:37.147Z,102211.44
2022-09-21T14:07:28.822Z,102200.09
2022-09-21T14:10:19.153Z,102207.94
2022-09-21T14:13:07.483Z,102200.91
2022-09-21T14:15:52.613Z,102203.22
2022-09-21T14:18:37.979Z,102195.53
2022-09-21T14:21:24.120Z,102190.69
2022-09-21T14:24:19.256Z,102183.69
2022-09-21T14:27:45.691Z,102186.31
2022-09-21T14:30:34.158Z,102175.22
2022-09-21T14:33:33.094Z,102175.00
2022-09-21T14:36:22.172Z,102168.94
2022-09-21T14:39:16.656Z,102172.41
2022-09-21T14:42:13.306Z,102162.69
2022-09-21T14:45:01.257Z,102168.81
2022-09-21T14:48:07.793Z,102142.25
2022-09-21T14:50:59.565Z,102161.31
2022-09-21T14:54:02.792Z,102161.31
2022-09-21T14:57:13.197Z,102146.13
2022-09-21T15:00:26.291Z,102160.28
2022-09-21T15:03:30.588Z,102149.41
2022-09-21T15:06:49.713Z,102148.44
2022-09-21T15:10:19.129Z,102142.31
2022-09-21T15:13:05.159Z,102139.38
2022-09-21T15:16:21.709Z,102135.22
2022-09-21T15:19:28.001Z,102122.25
2022-09-21T15:22:21.589Z,102134.63
2022-09-21T15:25:12.807Z,102124.00
2022-09-21T15:27:59.956Z,102138.16
2022-09-21T15:30:46.534Z,102128.59
2022-09-21T15:33:36.268Z,102137.66
2022-09-21T15:36:24.345Z,102133.28
2022-09-21T15:39:21.775Z,102145.28
2022-09-21T15:42:09.713Z,102149.56
2022-09-21T15:45:13.425Z,102135.53
2022-09-21T15:47:58.865Z,102138.72
2022-09-21T15:50:48.692Z,102132.13
2022-09-21T15:53:42.626Z,102137.53
2022-09-21T15:56:28.794Z,102135.25
2022-09-21T15:59:18.127Z,102135.00
2022-09-21T16:02:11.839Z,102140.09
2022-09-21T16:04:57.485Z,102134.84
2022-09-21T16:07:45.868Z,102141.81
2022-09-21T16:10:31.196Z,102159.09
2022-09-21T16:13:41.900Z,102153.59
2022-09-21T16:16:27.501Z,102151.56
2022-09-21T16:19:12.773Z,102148.09
2022-09-21T16:22:04.369Z,102153.72
2022-09-21T16:24:52.432Z,102152.94
2022-09-21T16:27:38.153Z,102154.41
2022-09-21T16:30:45.124Z,102151.31
2022-09-21T16:33:41.384Z,102149.22
2022-09-21T16:36:29.469Z,102150.47
2022-09-21T16:39:17.270Z,102146.91
2022-09-21T16:42:05.355Z,102153.06
2022-09-21T16:44:51.093Z,102151.28
2022-09-21T16:47:37.874Z,102156.97
2022-09-21T16:50:24.434Z,102150.41
2022-09-21T16:53:09.618Z,102154.72
2022-09-21T16:55:55.393Z,102145.56
2022-09-21T16:58:43.020Z,102170.13
2022-09-21T17:01:28.989Z,102170.53
2022-09-21T17:04:14.519Z,102167.69
2022-09-21T17:07:00.748Z,102176.31
2022-09-21T17:09:47.742Z,102189.19
2022-09-21T17:12:34.067Z,102166.00
2022-09-21T17:15:20.371Z,102176.75
2022-09-21T17:18:06.334Z,102174.22
2022-09-21T17:20:51.995Z,102187.41
2022-09-21T17:23:37.930Z,102160.78
2022-09-21T17:26:23.408Z,102195.81
2022-09-21T17:29:23.696Z,102189.78
2022-09-21T17:32:10.690Z,102183.66
2022-09-21T17:35:18.552Z,102202.44
2022-09-21T17:38:04.030Z,102193.59
2022-09-21T17:40:49.379Z,102181.13
2022-09-21T17:43:57.743Z,102192.69
2022-09-21T17:46:58.760Z,102195.41
2022-09-21T17:49:44.983Z,102192.41
2022-09-21T17:52:49.357Z,102201.56
2022-09-21T17:55:35.501Z,102198.94
2022-09-21T17:58:42.131Z,102202.66
2022-09-21T18:01:33.798Z,102194.91
2022-09-21T18:04:19.738Z,102193.44
2022-09-21T18:07:05.256Z,102192.13
2022-09-21T18:09:51.262Z,102203.50
2022-09-21T18:12:51.913Z,102192.16
2022-09-21T18:15:45.312Z,102204.63
2022-09-21T18:18:43.417Z,102204.91
2022-09-21T18:21:29.621Z,102196.00
2022-09-21T18:24:19.497Z,102206.31
2022-09-21T18:27:05.281Z,102194.38
2022-09-21T18:29:50.952Z,102196.78
2022-09-21T18:32:52.474Z,102205.78
2022-09-21T18:35:57.557Z,102204.34
2022-09-21T18:38:50.079Z,102213.91
2022-09-21T18:42:20.904Z,102209.84
2022-09-21T18:45:14.133Z,102214.22
2022-09-21T18:48:14.828Z,102217.25
2022-09-21T18:51:08.816Z,102219.13
2022-09-21T18:53:56.366Z,102211.59
2022-09-21T18:56:42.336Z,102220.94
2022-09-21T18:59:31.892Z,102222.06
2022-09-21T19:02:19.997Z,102222.91
2022-09-21T19:05:06.288Z,102212.72
2022-09-21T19:08:01.459Z,102221.25
2022-09-21T19:10:53.841Z,102215.22
2022-09-21T19:13:59.713Z,102216.38
2022-09-21T19:17:03.930Z,102225.13
2022-09-21T19:20:15.604Z,102224.53
2022-09-21T19:23:13.122Z,102222.03
2022-09-21T19:26:33.698Z,102232.88
2022-09-21T19:29:28.463Z,102231.44
2022-09-21T19:32:22.704Z,102223.78
2022-09-21T19:35:24.076Z,102243.13
2022-09-21T19:38:10.077Z,102237.22
2022-09-21T19:41:03.242Z,102233.22
2022-09-21T19:43:59.093Z,102234.16
2022-09-21T19:47:16.845Z,102233.31
2022-09-21T19:50:19.687Z,102246.59
2022-09-21T19:53:24.274Z,102239.16
2022-09-21T19:56:34.054Z,102246.72
2022-09-21T19:59:38.825Z,102229.81
2022-09-21T20:02:32.498Z,102247.22
2022-09-21T20:05:30.660Z,102242.06
2022-09-21T20:08:43.473Z,102239.09
2022-09-21T20:11:35.287Z,102217.28
2022-09-21T20:14:36.284Z,102238.16
2022-09-21T20:17:33.750Z,102239.91
2022-09-21T20:20:23.852Z,102237.28
2022-09-21T20:23:12.367Z,102244.41
2022-09-21T20:26:07.105Z,102247.97
2022-09-21T20:28:54.266Z,102243.50
2022-09-21T20:31:39.962Z,102243.63
2022-09-21T20:34:25.459Z,102249.25
2022-09-21T20:37:13.368Z,102245.03
2022-09-21T20:39:58.638Z,102240.91
2022-09-21T20:42:44.400Z,102249.53
2022-09-21T20:45:30.139Z,102260.81
2022-09-21T20:48:16.097Z,102259.84
2022-09-21T20:51:05.281Z,102263.47
2022-09-21T20:53:51.414Z,102263.66
2022-09-21T20:56:36.921Z,102258.47
2022-09-21T20:59:22.649Z,102236.06
2022-09-21T21:02:11.696Z,102253.94
2022-09-21T21:04:57.016Z,102262.88
2022-09-21T21:07:42.562Z,102261.97
2022-09-21T21:10:27.887Z,102252.28
2022-09-21T21:13:13.566Z,102262.84
2022-09-21T21:16:00.208Z,102266.81
2022-09-21T21:18:45.804Z,102256.50
2022-09-21T21:21:31.287Z,102249.41
2022-09-21T21:24:35.039Z,102264.34
2022-09-21T21:27:22.362Z,102268.47
2022-09-21T21:30:09.732Z,102270.47
2022-09-21T21:32:56.268Z,102268.97
2022-09-21T21:35:42.109Z,102273.66
2022-09-21T21:38:27.782Z,102260.59
2022-09-21T21:41:13.984Z,102272.03
2022-09-21T21:43:59.885Z,102264.31
2022-09-21T21:46:45.411Z,102270.44
2022-09-21T21:49:31.727Z,102268.75
2022-09-21T21:52:17.381Z,102273.50
2022-09-21T21:55:03.678Z,102267.38
2022-09-21T21:57:48.997Z,102254.72
2022-09-21T22:00:34.760Z,102271.34
2022-09-21T22:03:20.240Z,102274.06
2022-09-21T22:06:07.292Z,102267.19
2022-09-21T22:08:53.238Z,102271.56
2022-09-21T22:11:39.035Z,102269.81
2022-09-21T22:14:24.742Z,102265.53
2022-09-21T22:17:10.003Z,102277.75
2022-09-21T22:19:55.680Z,102268.16
2022-09-21T22:22:41.355Z,102261.31
2022-09-21T22:25:26.596Z,102245.72
2022-09-21T22:28:12.148Z,102263.84
2022-09-21T22:30:59.234Z,102255.22
2022-09-21T22:33:45.344Z,102260.50
2022-09-21T22:36:33.267Z,102275.34
2022-09-21T22:39:18.924Z,102270.34
2022-09-21T22:42:04.261Z,102272.00
2022-09-21T22:44:49.688Z,102267.72
2022-09-21T22:47:35.223Z,102280.69
2022-09-21T22:50:20.607Z,102278.09
2022-09-21T22:53:06.167Z,102269.50
2022-09-21T22:56:04.971Z,102266.88
2022-09-21T22:58:53.101Z,102268.63
2022-09-21T23:01:40.145Z,102272.03
2022-09-21T23:04:26.150Z,102267.59
2022-09-21T23:07:11.526Z,102254.56
2022-09-21T23:09:56.988Z,102267.56
2022-09-21T23:12:42.792Z,102261.53
2022-09-21T23:15:28.211Z,102270.22
2022-09-21T23:18:13.633Z,102258.84
2022-09-21T23:21:01.140Z,102252.69
2022-09-21T23:23:46.973Z,102257.00
2022-09-21T23:26:33.979Z,102249.28
2022-09-21T23:29:19.501Z,102258.72
2022-09-21T23:32:04.981Z,102250.22
2022-09-21T23:34:50.370Z,102246.81
2022-09-21T23:37:35.555Z,102258.03
2022-09-21T23:40:21.181Z,102246.94
2022-09-21T23:43:06.884Z,102249.75
2022-09-21T23:45:52.389Z,102248.03
2022-09-21T23:48:38.521Z,102247.28
2022-09-21T23:51:24.434Z,102245.72
2022-09-21T23:54:10.042Z,102243.28
2022-09-21T23:56:55.442Z,102219.94
2022-09-21T23:59:40.900Z,102228.59
